createdAt,value
2022-09-28T00:01:20.087Z,9.18
2022-09-28T00:06:24.879Z,9.33
2022-09-28T00:11:28.430Z,9.36
2022-09-28T00:16:34.561Z,9.46
2022-09-28T00:21:40.287Z,9.27
2022-09-28T00:26:44.585Z,9.20
2022-09-28T00:31:48.368Z,9.26
2022-09-28T00:36:51.459Z,9.19
2022-09-28T00:41:54.868Z,9.18
2022-09-28T00:47:14.418Z,9.28
2022-09-28T00:52:26.833Z,9.37
2022-09-28T00:57:30.473Z,9.41
2022-09-28T01:02:33.021Z,9.52
2022-09-28T01:07:37.228Z,9.61
2022-09-28T01:12:39.731Z,9.53
2022-09-28T01:17:53.552Z,9.61
2022-09-28T01:23:31.988Z,9.88
2022-09-28T01:28:37.936Z,9.72
2022-09-28T01:33:48.561Z,9.62
2022-09-28T01:39:09.465Z,9.66
2022-09-28T01:44:17.152Z,9.66
2022-09-28T01:49:27.865Z,9.69
2022-09-28T01:54:38.190Z,9.74
2022-09-28T01:59:46.534Z,9.86
2022-09-28T02:04:56.369Z,9.89
2022-09-28T02:10:05.608Z,9.92
2022-09-28T02:15:41.112Z,9.91
2022-09-28T02:20:50.467Z,9.95
2022-09-28T02:26:01.940Z,9.97
2022-09-28T02:31:04.634Z,9.96
2022-09-28T02:36:07.606Z,9.98
2022-09-28T02:41:23.488Z,9.99
2022-09-28T02:46:42.866Z,9.95
2022-09-28T02:52:06.286Z,10.03
2022-09-28T02:57:30.231Z,10.01
2022-09-28T03:02:36.685Z,10.00
2022-09-28T03:08:03.193Z,10.03
2022-09-28T03:13:07.610Z,10.13
2022-09-28T03:18:11.442Z,10.18
2022-09-28T03:23:24.799Z,10.22
2022-09-28T03:28:28.044Z,10.21
2022-09-28T03:33:30.448Z,10.19
2022-09-28T03:38:33.003Z,10.26
2022-09-28T03:43:35.972Z,10.24
2022-09-28T03:48:41.580Z,10.26
2022-09-28T03:53:46.512Z,10.28
2022-09-28T03:58:49.436Z,10.38
2022-09-28T04:03:56.075Z,10.65
2022-09-28T04:08:58.998Z,11.07
2022-09-28T04:14:01.757Z,11.20
2022-09-28T04:19:05.801Z,10.95
2022-09-28T04:24:14.660Z,10.82
2022-09-28T04:29:17.904Z,10.90
2022-09-28T04:34:33.171Z,10.83
2022-09-28T04:39:37.996Z,10.78
2022-09-28T04:44:42.140Z,10.80
2022-09-28T04:49:45.755Z,10.88
2022-09-28T04:55:00.569Z,10.71
2022-09-28T05:00:03.875Z,10.73
2022-09-28T05:05:09.553Z,10.69
2022-09-28T05:10:20.711Z,10.75
2022-09-28T05:15:23.094Z,10.69
2022-09-28T05:20:25.523Z,10.66
2022-09-28T05:25:28.097Z,10.64
2022-09-28T05:30:52.476Z,10.50
2022-09-28T05:36:27.998Z,10.52
2022-09-28T05:41:30.543Z,10.67
2022-09-28T05:46:33.126Z,10.64
2022-09-28T05:51:37.141Z,10.54
2022-09-28T05:56:39.571Z,10.59
2022-09-28T06:01:43.434Z,10.65
2022-09-28T06:06:47.699Z,10.65
2022-09-28T06:11:51.187Z,10.68
2022-09-28T06:17:00.228Z,10.67
2022-09-28T06:22:02.871Z,10.75
2022-09-28T06:27:07.971Z,10.65
2022-09-28T06:32:12.430Z,10.77
2022-09-28T06:37:18.694Z,10.74
2022-09-28T06:42:22.076Z,10.77
2022-09-28T06:47:44.825Z,10.94
2022-09-28T06:52:57.260Z,11.10
2022-09-28T06:58:12.022Z,11.12
2022-09-28T07:03:17.178Z,11.22
2022-09-28T07:08:31.637Z,11.37
2022-09-28T07:13:53.993Z,11.32
2022-09-28T07:18:58.807Z,11.31
2022-09-28T07:24:01.510Z,11.41
2022-09-28T07:29:13.317Z,11.23
2022-09-28T07:34:43.858Z,11.49
2022-09-28T07:40:28.335Z,11.69
2022-09-28T07:45:34.107Z,11.53
2022-09-28T07:50:36.764Z,11.63
2022-09-28T07:55:55.844Z,11.81
2022-09-28T08:01:11.960Z,12.20
2022-09-28T08:06:19.188Z,12.35
2022-09-28T08:11:21.436Z,12.14
2022-09-28T08:17:02.411Z,12.46
2022-09-28T08:22:14.523Z,12.70
2022-09-28T08:27:18.490Z,12.78
2022-09-28T08:32:21.618Z,12.87
2022-09-28T08:37:59.304Z,13.18
2022-09-28T08:44:00.628Z,13.63
2022-09-28T08:49:47.575Z,14.10
2022-09-28T08:55:34.454Z,13.60
2022-09-28T09:00:47.646Z,13.06
2022-09-28T09:06:18.858Z,13.09
2022-09-28T09:11:43.933Z,13.22
2022-09-28T09:17:01.624Z,12.99
2022-09-28T09:22:42.617Z,13.10
2022-09-28T09:27:53.493Z,12.79
2022-09-28T09:33:30.736Z,13.16
2022-09-28T09:38:59.897Z,13.19
2022-09-28T09:44:52.419Z,13.37
2022-09-28T09:50:30.144Z,13.24
2022-09-28T09:55:40.725Z,13.07
2022-09-28T10:01:10.952Z,13.14
2022-09-28T10:06:39.180Z,13.00
2022-09-28T10:11:46.402Z,13.22
2022-09-28T10:16:53.783Z,13.48
2022-09-28T10:22:23.239Z,13.53
2022-09-28T10:27:31.967Z,13.25
2022-09-28T10:32:39.653Z,13.37
2022-09-28T10:38:03.347Z,13.62
2022-09-28T10:43:38.537Z,14.10
2022-09-28T10:49:07.023Z,14.50
2022-09-28T10:54:16.587Z,14.58
2022-09-28T10:59:30.808Z,14.80
2022-09-28T11:05:02.083Z,15.37
2022-09-28T11:10:26.146Z,14.88
2022-09-28T11:15:37.807Z,14.98
2022-09-28T11:20:44.799Z,15.26
2022-09-28T11:26:07.155Z,15.20
2022-09-28T11:31:10.418Z,15.38
2022-09-28T11:36:49.798Z,15.74
2022-09-28T11:42:07.671Z,15.42
2022-09-28T11:47:37.710Z,14.82
2022-09-28T11:53:00.520Z,15.30
2022-09-28T11:58:11.784Z,15.91
2022-09-28T12:03:25.180Z,16.14
2022-09-28T12:08:30.272Z,15.74
2022-09-28T12:13:44.761Z,15.31
2022-09-28T12:19:05.658Z,15.58
2022-09-28T12:24:23.660Z,16.03
2022-09-28T12:29:41.749Z,16.24
2022-09-28T12:34:44.703Z,16.76
2022-09-28T12:40:00.291Z,16.64
2022-09-28T12:45:38.929Z,15.87
2022-09-28T12:50:57.632Z,15.72
2022-09-28T12:56:29.549Z,15.00
2022-09-28T13:01:44.629Z,15.14
2022-09-28T13:06:47.364Z,15.25
2022-09-28T13:12:07.909Z,15.32
2022-09-28T13:17:19.234Z,15.57
2022-09-28T13:22:34.109Z,16.20
2022-09-28T13:27:40.847Z,16.44
2022-09-28T13:32:44.875Z,17.11
2022-09-28T13:37:49.013Z,18.10
2022-09-28T13:43:06.837Z,17.07
2022-09-28T13:48:12.319Z,16.26
2022-09-28T13:53:32.851Z,15.84
2022-09-28T13:58:47.100Z,16.66
2022-09-28T14:04:12.444Z,16.22
2022-09-28T14:09:21.118Z,15.99
2022-09-28T14:14:52.001Z,15.89
2022-09-28T14:20:00.828Z,15.99
2022-09-28T14:25:23.727Z,15.89
2022-09-28T14:30:43.462Z,15.03
2022-09-28T14:35:52.035Z,14.89
2022-09-28T14:41:10.872Z,14.85
2022-09-28T14:46:19.369Z,14.99
2022-09-28T14:51:30.194Z,15.02
2022-09-28T14:56:46.160Z,14.80
2022-09-28T15:02:12.499Z,14.58
2022-09-28T15:07:27.134Z,14.63
2022-09-28T15:12:32.743Z,14.51
2022-09-28T15:17:39.966Z,14.36
2022-09-28T15:22:47.863Z,14.38
2022-09-28T15:27:55.763Z,14.26
2022-09-28T15:33:18.957Z,14.10
2022-09-28T15:38:21.522Z,14.01
2022-09-28T15:43:29.125Z,14.05
2022-09-28T15:48:46.611Z,14.08
2022-09-28T15:54:01.096Z,13.95
2022-09-28T15:59:15.460Z,13.90
2022-09-28T16:04:39.442Z,13.83
2022-09-28T16:10:00.346Z,13.77
2022-09-28T16:15:14.271Z,13.64
2022-09-28T16:20:48.261Z,13.69
2022-09-28T16:26:02.057Z,13.50
2022-09-28T16:31:13.668Z,13.50
2022-09-28T16:36:17.662Z,13.45
2022-09-28T16:41:24.899Z,13.50
2022-09-28T16:46:37.614Z,13.44
2022-09-28T16:51:40.225Z,13.29
2022-09-28T16:56:42.665Z,13.15
2022-09-28T17:01:45.138Z,12.85
2022-09-28T17:06:47.961Z,12.69
2022-09-28T17:11:57.064Z,12.74
2022-09-28T17:17:09.009Z,12.59
2022-09-28T17:22:14.203Z,12.43
2022-09-28T17:27:20.989Z,12.33
2022-09-28T17:32:23.023Z,12.33
2022-09-28T17:37:25.015Z,12.30
2022-09-28T17:42:27.287Z,12.47
2022-09-28T17:47:34.087Z,12.25
2022-09-28T17:52:36.384Z,12.30
2022-09-28T17:57:38.532Z,12.50
2022-09-28T18:02:41.763Z,12.62
2022-09-28T18:07:47.590Z,12.49
2022-09-28T18:12:51.152Z,12.45
2022-09-28T18:17:53.419Z,12.42
2022-09-28T18:22:55.851Z,12.24
2022-09-28T18:28:00.101Z,11.83
2022-09-28T18:33:02.523Z,11.68
2022-09-28T18:38:06.358Z,11.66
2022-09-28T18:43:08.820Z,11.44
2022-09-28T18:48:11.195Z,11.33
2022-09-28T18:53:13.693Z,11.17
2022-09-28T18:58:16.264Z,11.03
2022-09-28T19:03:19.265Z,10.93
2022-09-28T19:08:25.497Z,10.77
2022-09-28T19:13:30.081Z,10.60
2022-09-28T19:18:32.568Z,10.50
2022-09-28T19:23:36.223Z,10.44
2022-09-28T19:28:38.711Z,10.42
2022-09-28T19:33:41.860Z,10.43
2022-09-28T19:38:44.801Z,10.34
2022-09-28T19:43:47.697Z,10.27
2022-09-28T19:48:50.223Z,10.21
2022-09-28T19:53:52.691Z,10.19
2022-09-28T19:58:55.156Z,10.19
2022-09-28T20:03:59.183Z,10.22
2022-09-28T20:09:01.638Z,10.19
2022-09-28T20:14:09.817Z,10.15
2022-09-28T20:19:12.987Z,10.07
2022-09-28T20:24:17.387Z,10.06
2022-09-28T20:29:20.337Z,10.08
2022-09-28T20:34:22.810Z,9.97
2022-09-28T20:39:25.279Z,9.97
2022-09-28T20:44:28.036Z,9.93
2022-09-28T20:49:31.243Z,9.86
2022-09-28T20:54:33.685Z,9.85
2022-09-28T20:59:36.078Z,9.86
2022-09-28T21:04:39.094Z,9.83
2022-09-28T21:09:41.557Z,9.85
2022-09-28T21:14:43.952Z,9.89
2022-09-28T21:19:46.507Z,9.91
2022-09-28T21:24:49.329Z,9.88
2022-09-28T21:29:51.819Z,9.83
2022-09-28T21:34:54.419Z,9.75
2022-09-28T21:39:56.836Z,9.77
2022-09-28T21:44:59.625Z,9.81
2022-09-28T21:50:02.088Z,9.82
2022-09-28T21:55:04.785Z,9.83
2022-09-28T22:00:08.077Z,9.77
2022-09-28T22:05:11.823Z,9.72
2022-09-28T22:10:15.421Z,9.67
2022-09-28T22:15:18.312Z,9.71
2022-09-28T22:20:20.935Z,9.98
2022-09-28T22:25:23.307Z,10.06
2022-09-28T22:30:25.684Z,9.99
2022-09-28T22:35:28.094Z,10.01
2022-09-28T22:40:30.577Z,10.67
2022-09-28T22:45:33.008Z,11.04
2022-09-28T22:50:35.443Z,10.59
2022-09-28T22:55:37.839Z,10.73
2022-09-28T23:00:40.688Z,10.64
2022-09-28T23:05:51.316Z,11.03
2022-09-28T23:10:53.764Z,10.94
2022-09-28T23:16:20.852Z,10.78
2022-09-28T23:21:25.823Z,10.84
2022-09-28T23:26:31.901Z,10.69
2022-09-28T23:31:34.425Z,10.80
2022-09-28T23:36:36.879Z,10.79
2022-09-28T23:41:39.951Z,10.48
2022-09-28T23:46:43.032Z,10.50
2022-09-28T23:51:45.788Z,10.55
2022-09-28T23:56:48.688Z,10.75
